Time;durP1;ratioP1;P1;durP2;ratioP2;P2;SDS_P1;SDS_P2;PMS_P1;PMS_P2;Temp;Humidity;BMP_temperature;BMP_pressure;BME280_temperature;BME280_humidity;BME280_pressure;Samples;Min_cycle;Max_cycle;Signal;HPM_P1;HPM_P2
2021/12/11 00:02:11;;;;;;;14.02;5.10;;;;;;;;;;5078001;28;20175;-74
2021/12/11 00:04:39;;;;;;;11.55;6.00;;;;;;;;;;5073672;28;20170;-74
2021/12/11 00:07:08;;;;;;;14.98;4.97;;;;;;;;;;5073644;28;20175;-74
2021/12/11 00:09:41;;;;;;;16.00;5.70;;;;;;;;;;5073474;28;20175;-74
2021/12/11 00:12:10;;;;;;;18.63;5.88;;;;;;;;;;5073665;28;20183;-74
2021/12/11 00:14:38;;;;;;;11.93;5.28;;;;;;;;;;5084475;28;20181;-74
2021/12/11 00:17:05;;;;;;;14.23;5.50;;;;;;;;;;5082867;28;20186;-74
2021/12/11 00:19:33;;;;;;;11.98;5.70;;;;;;;;;;5073292;28;20187;-74
2021/12/11 00:22:07;;;;;;;10.70;4.90;;;;;;;;;;5076656;28;20194;-74
2021/12/11 00:24:35;;;;;;;13.10;6.25;;;;;;;;;;5078788;28;20523;-74
2021/12/11 00:27:08;;;;;;;14.27;5.40;;;3.90;1.00;;;;;;5075472;28;20206;-74
2021/12/11 00:29:35;;;;;;;19.95;6.38;;;;;;;;;;5073077;28;20175;-74
2021/12/11 00:32:12;;;;;;;15.40;5.75;;;;;;;;;;5083999;28;20195;-74
2021/12/11 00:34:43;;;;;;;29.50;7.93;;;;;;;;;;5100429;28;20221;-74
2021/12/11 00:37:09;;;;;;;14.75;5.63;;;;;;;;;;5083212;28;20155;-74
2021/12/11 00:39:44;;;;;;;12.73;4.88;;;;;;;;;;5079702;28;20175;-74
2021/12/11 00:42:12;;;;;;;7.28;4.35;;;;;;;;;;5077502;28;20206;-74
2021/12/11 00:44:44;;;;;;;11.63;4.82;;;;;;;;;;5077079;28;20191;-74
2021/12/11 00:47:14;;;;;;;10.88;4.38;;;;;;;;;;5077098;28;20223;-74
2021/12/11 00:49:53;;;;;;;42.75;5.90;;;3.90;1.00;;;;;;5082146;28;20171;-74
2021/12/11 00:52:26;;;;;;;16.27;5.68;;;;;;;;;;5081866;28;20191;-74
2021/12/11 00:54:52;;;;;;;18.15;6.35;;;;;;;;;;5088123;28;20653;-74
2021/12/11 00:57:21;;;;;;;28.30;7.55;;;;;;;;;;5081532;28;20175;-74
2021/12/11 00:59:47;;;;;;;20.65;6.57;;;;;;;;;;5086278;28;20250;-74
2021/12/11 01:02:14;;;;;;;13.80;6.00;;;;;;;;;;5084481;28;20263;-74
2021/12/11 01:04:44;;;;;;;14.40;6.53;;;;;;;;;;5076765;28;20527;-74
2021/12/11 01:07:18;;;;;;;14.82;6.10;;;;;;;;;;5076973;28;20509;-74
2021/12/11 01:09:49;;;;;;;12.70;6.05;;;;;;;;;;5085642;28;20194;-74
2021/12/11 01:12:20;;;;;;;13.15;5.72;;;;;;;;;;5076864;28;20183;-74
2021/12/11 01:14:52;;;;;;;10.55;5.20;;;;;;;;;;5076370;28;20181;-74
2021/12/11 01:17:26;;;;;;;35.20;7.80;;;;;;;;;;5077084;28;20167;-74
2021/12/11 01:19:55;;;;;;;29.20;5.88;;;;;;;;;;5080488;28;20174;-74
2021/12/11 01:22:35;;;;;;;16.30;5.93;;;;;;;;;;5084308;28;20197;-74
2021/12/11 01:25:22;;;;;;;8.30;4.22;;;3.80;1.00;;;;;;5076185;28;20178;-74
2021/12/11 01:27:55;;;;;;;12.88;6.45;;;;;;;;;;5078706;28;20211;-74
2021/12/11 01:30:25;;;;;;;20.30;5.80;;;;;;;;;;5076165;28;20261;-74
2021/12/11 01:32:51;;;;;;;11.60;5.82;;;;;;;;;;5076015;28;20202;-74
2021/12/11 01:35:18;;;;;;;20.77;6.05;;;3.80;1.00;;;;;;5076189;28;20179;-74
2021/12/11 01:37:47;;;;;;;17.73;6.63;;;3.80;1.00;;;;;;5084725;28;20245;-74
2021/12/11 01:40:17;;;;;;;17.23;6.28;;;;;;;;;;5078798;28;20523;-74
2021/12/11 01:42:43;;;;;;;12.98;5.55;;;;;;;;;;5083091;28;20190;-74
2021/12/11 01:45:12;;;;;;;25.15;5.43;;;;;;;;;;5078468;28;20201;-74
2021/12/11 01:47:40;;;;;;;31.42;7.05;;;;;;;;;;5075771;28;20170;-74
2021/12/11 01:50:20;;;;;;;16.50;6.82;;;3.80;1.00;;;;;;5079457;28;20527;-73
2021/12/11 01:52:56;;;;;;;17.45;6.60;;;;;;;;;;5083279;28;20482;-74
2021/12/11 01:55:36;;;;;;;10.80;5.88;;;;;;;;;;5082580;28;20178;-74
2021/12/11 01:58:03;;;;;;;15.80;6.32;;;;;;;;;;5075927;28;20232;-74
2021/12/11 02:00:32;;;;;;;11.52;5.30;;;;;;;;;;5078289;28;20186;-74
2021/12/11 02:03:00;;;;;;;11.38;4.40;;;;;;;;;;5075527;28;20206;-74
2021/12/11 02:05:27;;;;;;;14.85;5.82;;;;;;;;;;5075443;28;20535;-74
2021/12/11 02:07:56;;;;;;;13.18;4.57;;;;;;;;;;5075359;28;20178;-74
2021/12/11 02:10:27;;;;;;;14.45;7.05;;;;;;;;;;5081433;28;20179;-74
2021/12/11 02:12:54;;;;;;;10.07;5.88;;;;;;;;;;5075642;28;20186;-74
2021/12/11 02:15:30;;;;;;;13.43;5.00;;;;;;;;;;5086934;28;20170;-74
2021/12/11 02:18:10;;;;;;;13.75;5.97;;;;;;;;;;5075040;28;20174;-74
2021/12/11 02:20:41;;;;;;;12.48;5.63;;;;;;;;;;5078224;28;20207;-74
2021/12/11 02:23:08;;;;;;;8.57;4.25;;;;;;;;;;5080940;28;20194;-74
2021/12/11 02:25:37;;;;;;;11.55;5.28;;;;;;;;;;5074955;28;20209;-74
2021/12/11 02:28:15;;;;;;;14.10;5.15;;;;;;;;;;5075442;28;20175;-74
2021/12/11 02:30:49;;;;;;;9.75;4.35;;;;;;;;;;5075226;28;20175;-74
2021/12/11 02:33:16;;;;;;;10.43;6.00;;;;;;;;;;5074810;28;20193;-74
2021/12/11 02:35:48;;;;;;;19.65;6.00;;;;;;;;;;5074931;28;20167;-74
2021/12/11 02:38:39;;;;;;;10.75;4.68;;;3.80;1.00;;;;;;5075023;28;20236;-74
2021/12/11 02:41:10;;;;;;;19.70;7.20;;;;;;;;;;5074702;28;20181;-74
2021/12/11 02:43:58;;;;;;;10.57;4.65;;;3.80;1.00;;;;;;5075380;28;20287;-74
2021/12/11 02:46:28;;;;;;;11.45;4.55;;;;;;;;;;5074470;28;20179;-74
2021/12/11 02:48:58;;;;;;;14.43;5.60;;;;;;;;;;5081046;28;20508;-74
2021/12/11 02:51:39;;;;;;;10.27;5.47;;;;;;;;;;5075437;28;20578;-74
2021/12/11 02:54:07;;;;;;;15.85;6.50;;;;;;;;;;5085403;28;20178;-74
2021/12/11 02:56:37;;;;;;;16.80;6.15;;;;;;;;;;5084903;28;20182;-73
2021/12/11 02:59:06;;;;;;;15.00;5.18;;;;;;;;;;5087442;28;20514;-74
2021/12/11 03:01:40;;;;;;;12.18;5.30;;;;;;;;;;5074225;28;20261;-74
2021/12/11 03:04:17;;;;;;;10.13;4.22;;;;;;;;;;5072961;28;20202;-74
2021/12/11 03:06:46;;;;;;;10.15;5.55;;;;;;;;;;5074425;28;20177;-74
2021/12/11 03:09:15;;;;;;;12.25;5.72;;;;;;;;;;5078638;28;20181;-74
2021/12/11 03:11:41;;;;;;;11.63;4.53;;;;;;;;;;5082192;28;20207;-73
2021/12/11 03:14:12;;;;;;;12.00;4.78;;;;;;;;;;5081190;28;20729;-74
2021/12/11 03:16:39;;;;;;;7.72;4.45;;;;;;;;;;5081022;28;20167;-74
2021/12/11 03:19:07;;;;;;;14.07;5.95;;;;;;;;;;5095605;28;20582;-74
2021/12/11 03:21:33;;;;;;;14.88;5.85;;;;;;;;;;5098035;28;20178;-74
2021/12/11 03:23:59;;;;;;;12.82;4.80;;;;;;;;;;5073641;28;20206;-74
2021/12/11 03:26:25;;;;;;;13.25;5.50;;;;;;;;;;5073860;28;20178;-74
2021/12/11 03:28:52;;;;;;;9.02;4.40;;;;;;;;;;5073954;28;20173;-74
2021/12/11 03:31:18;;;;;;;15.10;6.30;;;;;;;;;;5086156;28;20198;-74
2021/12/11 03:33:46;;;;;;;16.55;5.90;;;;;;;;;;5074780;28;20265;-74
2021/12/11 03:36:13;;;;;;;18.65;6.13;;;;;;;;;;5075749;28;20186;-74
2021/12/11 03:38:40;;;;;;;24.90;5.60;;;;;;;;;;5073593;28;20170;-74
2021/12/11 03:41:07;;;;;;;11.98;6.40;;;;;;;;;;5074105;28;20178;-74
2021/12/11 03:43:34;;;;;;;21.48;5.80;;;;;;;;;;5074182;28;20278;-74
2021/12/11 03:46:03;;;;;;;14.82;5.40;;;;;;;;;;5073441;28;20163;-74
2021/12/11 03:48:34;;;;;;;11.18;5.00;;;;;;;;;;5090848;28;20239;-74
2021/12/11 03:51:01;;;;;;;10.65;3.80;;;;;;;;;;5077778;28;20159;-74
2021/12/11 03:53:27;;;;;;;11.68;5.68;;;;;;;;;;5073584;28;20217;-74
2021/12/11 03:55:56;;;;;;;13.95;5.47;;;;;;;;;;5082263;28;20206;-74
2021/12/11 03:58:22;;;;;;;28.35;6.40;;;;;;;;;;5078954;28;20576;-74
2021/12/11 04:00:48;;;;;;;12.27;5.28;;;;;;;;;;5073444;28;20175;-74
2021/12/11 04:03:16;;;;;;;19.00;4.68;;;;;;;;;;5073056;28;20213;-74
2021/12/11 04:05:43;;;;;;;12.95;4.88;;;;;;;;;;5082102;28;20175;-74
2021/12/11 04:08:11;;;;;;;14.35;5.10;;;;;;;;;;5073485;28;20205;-74
2021/12/11 04:10:37;;;;;;;14.05;5.63;;;;;;;;;;5080569;28;20257;-74
2021/12/11 04:13:04;;;;;;;13.50;5.25;;;;;;;;;;5081317;28;20186;-74
2021/12/11 04:15:31;;;;;;;24.13;6.75;;;;;;;;;;5081110;28;20194;-74
2021/12/11 04:17:57;;;;;;;17.17;5.43;;;;;;;;;;5086297;28;20178;-74
2021/12/11 04:20:25;;;;;;;8.32;4.95;;;;;;;;;;5087765;28;20175;-74
2021/12/11 04:22:52;;;;;;;15.40;5.35;;;;;;;;;;5080169;28;20203;-74
2021/12/11 04:25:20;;;;;;;10.35;4.35;;;;;;;;;;5078579;28;20252;-74
2021/12/11 04:27:47;;;;;;;15.30;6.05;;;;;;;;;;5093021;28;20654;-74
2021/12/11 04:30:14;;;;;;;11.77;5.20;;;;;;;;;;5084123;28;20174;-74
2021/12/11 04:32:40;;;;;;;14.90;5.40;;;;;;;;;;5079222;28;20189;-74
2021/12/11 04:35:08;;;;;;;14.65;5.10;;;;;;;;;;5077283;28;20186;-74
2021/12/11 04:37:35;;;;;;;25.52;5.53;;;;;;;;;;5078855;28;20178;-74
2021/12/11 04:40:05;;;;;;;10.23;4.40;;;;;;;;;;5088204;28;20174;-74
2021/12/11 04:42:50;;;;;;;10.32;4.90;;;;;;;;;;5088750;28;20202;-74
2021/12/11 04:45:29;;;;;;;9.15;3.97;;;;;;;;;;5089802;28;20166;-74
2021/12/11 04:48:07;;;;;;;13.05;4.90;;;;;;;;;;5076890;28;20201;-74
2021/12/11 04:50:52;;;;;;;14.55;5.57;;;;;;;;;;5076798;28;20181;-74
2021/12/11 04:53:41;;;;;;;20.77;6.15;;;;;;;;;;5078745;28;20201;-74
2021/12/11 05:11:34;;;;;;;12.55;5.05;;;;;;;;;;5076561;28;20488;-74
2021/12/11 05:14:00;;;;;;;35.40;7.43;;;;;;;;;;5089362;28;20482;-74
2021/12/11 05:16:26;;;;;;;11.93;4.90;;;;;;;;;;5085000;28;20187;-74
2021/12/11 05:18:52;;;;;;;22.52;7.00;;;;;;;;;;5076235;28;20250;-74
2021/12/11 05:21:19;;;;;;;13.93;5.05;;;;;;;;;;5076398;28;20178;-74
2021/12/11 05:23:47;;;;;;;19.17;5.65;;;;;;;;;;5089522;28;20202;-74
2021/12/11 05:26:13;;;;;;;18.50;6.75;;;;;;;;;;5077297;28;20186;-74
2021/12/11 05:28:40;;;;;;;15.43;6.28;;;;;;;;;;5075283;28;20187;-74
2021/12/11 05:31:07;;;;;;;11.73;5.53;;;;;;;;;;5077873;28;20248;-74
2021/12/11 05:33:33;;;;;;;12.20;5.28;;;;;;;;;;5076237;28;20183;-73
2021/12/11 05:35:59;;;;;;;7.47;4.45;;;;;;;;;;5085248;28;20174;-74
2021/12/11 05:38:25;;;;;;;13.35;5.15;;;;;;;;;;5080213;28;20213;-74
2021/12/11 05:40:54;;;;;;;11.50;5.38;;;;;;;;;;5074626;28;20187;-74
2021/12/11 05:43:20;;;;;;;26.15;7.18;;;;;;;;;;5076378;28;20548;-74
2021/12/11 05:45:47;;;;;;;15.52;5.00;;;;;;;;;;5080518;28;20181;-74
2021/12/11 05:48:14;;;;;;;17.13;7.13;;;;;;;;;;5075592;28;20170;-74
2021/12/11 05:50:42;;;;;;;16.30;6.43;;;;;;;;;;5076340;28;20221;-74
2021/12/11 05:53:09;;;;;;;23.35;7.68;;;;;;;;;;5073906;28;20240;-74
2021/12/11 05:55:36;;;;;;;13.27;6.20;;;;;;;;;;5079332;28;20175;-74
2021/12/11 05:58:10;;;;;;;11.50;5.80;;;;;;;;;;5085228;28;20221;-74
2021/12/11 06:00:38;;;;;;;20.38;6.53;;;;;;;;;;5091594;28;20413;-74
2021/12/11 06:03:05;;;;;;;12.55;5.95;;;;;;;;;;5077776;28;20278;-74
2021/12/11 06:05:38;;;;;;;12.35;5.82;;;;;;;;;;5078802;28;20175;-74
2021/12/11 06:08:04;;;;;;;13.18;5.82;;;;;;;;;;5086361;28;20253;-74
2021/12/11 06:10:31;;;;;;;11.65;5.35;;;;;;;;;;5075274;28;20175;-74
2021/12/11 06:12:59;;;;;;;13.48;6.78;;;;;;;;;;5076913;28;20228;-74
2021/12/11 06:15:26;;;;;;;8.18;4.40;;;;;;;;;;5085809;28;20622;-74
2021/12/11 06:17:53;;;;;;;19.52;6.65;;;;;;;;;;5075159;28;20316;-74
2021/12/11 06:20:23;;;;;;;23.70;8.13;;;;;;;;;;5077657;28;20198;-74
2021/12/11 06:22:50;;;;;;;14.27;5.57;;;;;;;;;;5073824;28;20203;-74
2021/12/11 06:25:21;;;;;;;17.83;6.75;;;;;;;;;;5082547;28;20182;-74
2021/12/11 06:27:48;;;;;;;19.27;6.60;;;;;;;;;;5078710;28;20771;-74
2021/12/11 06:30:14;;;;;;;16.23;5.65;;;;;;;;;;5075441;28;20464;-74
2021/12/11 06:32:42;;;;;;;11.18;4.55;;;;;;;;;;5085407;28;20281;-74
2021/12/11 06:35:12;;;;;;;12.60;5.10;;;;;;;;;;5074167;28;20189;-74
2021/12/11 06:37:39;;;;;;;14.38;6.25;;;;;;;;;;5085831;28;20224;-74
2021/12/11 06:40:05;;;;;;;8.07;4.20;;;;;;;;;;5074765;28;20254;-74
2021/12/11 06:42:32;;;;;;;10.45;5.95;;;;;;;;;;5074509;28;20198;-74
2021/12/11 06:44:58;;;;;;;11.45;5.10;;;;;;;;;;5075095;28;20175;-73
2021/12/11 06:47:24;;;;;;;14.18;5.93;;;;;;;;;;5074808;28;20175;-74
2021/12/11 06:49:50;;;;;;;11.05;4.53;;;;;;;;;;5074307;28;20336;-74
2021/12/11 06:52:19;;;;;;;10.35;6.55;;;;;;;;;;5074417;28;20170;-73
2021/12/11 06:54:46;;;;;;;10.13;4.72;;;;;;;;;;5078192;28;20642;-74
2021/12/11 06:57:17;;;;;;;17.35;6.88;;;;;;;;;;5084133;28;20198;-77
2021/12/11 06:59:44;;;;;;;20.15;9.88;;;;;;;;;;5105539;28;20174;-74
2021/12/11 07:02:10;;;;;;;13.02;5.13;;;;;;;;;;5091518;28;20170;-74
2021/12/11 07:04:37;;;;;;;16.83;6.00;;;;;;;;;;5077424;28;20185;-74
2021/12/11 07:07:04;;;;;;;19.95;5.65;;;;;;;;;;5083661;28;20559;-74
2021/12/11 07:09:31;;;;;;;28.42;7.72;;;;;;;;;;5075524;28;20232;-74
2021/12/11 07:11:58;;;;;;;17.90;9.23;;;;;;;;;;5078078;28;20501;-79
2021/12/11 07:14:25;;;;;;;13.20;5.00;;;;;;;;;;5077267;28;20175;-73
2021/12/11 07:16:52;;;;;;;23.10;10.40;;;;;;;;;;5074490;28;20178;-75
2021/12/11 07:19:18;;;;;;;25.35;10.38;;;;;;;;;;5084253;28;20512;-74
2021/12/11 07:21:46;;;;;;;30.95;11.10;;;;;;;;;;5079719;28;20186;-75
2021/12/11 07:24:14;;;;;;;26.23;11.23;;;;;;;;;;5078347;28;20197;-74
2021/12/11 07:26:40;;;;;;;25.10;11.40;;;;;;;;;;5091157;28;20170;-75
2021/12/11 07:29:10;;;;;;;24.60;10.55;;;;;;;;;;5075953;28;20691;-71
2021/12/11 07:31:36;;;;;;;23.10;10.35;;;;;;;;;;5079338;28;20623;-73
2021/12/11 07:34:03;;;;;;;23.15;10.25;;;;;;;;;;5082110;28;20163;-76
2021/12/11 07:36:30;;;;;;;27.70;11.70;;;;;;;;;;5083738;28;20617;-75
2021/12/11 07:38:57;;;;;;;25.35;11.00;;;;;;;;;;5083579;28;20189;-75
2021/12/11 07:41:23;;;;;;;23.42;11.15;;;;;;;;;;5084873;28;20594;-74
2021/12/11 07:43:51;;;;;;;23.73;11.27;;;;;;;;;;5087671;28;20189;-74
2021/12/11 07:46:20;;;;;;;28.30;13.00;;;;;;;;;;5071776;28;20572;-73
2021/12/11 07:48:47;;;;;;;31.13;12.18;;;;;;;;;;5088998;28;20626;-73
2021/12/11 07:51:14;;;;;;;24.42;11.60;;;;;;;;;;5083890;28;20206;-73
2021/12/11 07:53:41;;;;;;;28.27;13.07;;;;;;;;;;5073295;28;20207;-74
2021/12/11 07:56:07;;;;;;;43.33;14.57;;;;;;;;;;5052643;28;20204;-73
2021/12/11 07:58:35;;;;;;;28.42;13.15;;;;;;;;;;5077950;28;20649;-74
2021/12/11 08:01:02;;;;;;;30.20;12.55;;;;;;;;;;5080614;28;20519;-74
2021/12/11 08:03:28;;;;;;;32.28;13.95;;;;;;;;;;5076594;28;20194;-74
2021/12/11 08:05:54;;;;;;;33.90;13.07;;;;;;;;;;5086445;28;20167;-74
2021/12/11 08:08:22;;;;;;;31.48;13.90;;;;;;;;;;5080457;28;20200;-76
2021/12/11 08:10:50;;;;;;;30.77;14.13;;;;;;;;;;5082093;28;20224;-74
2021/12/11 08:13:16;;;;;;;34.10;14.20;;;;;;;;;;5076977;28;20190;-74
2021/12/11 08:15:43;;;;;;;31.50;13.65;;;;;;;;;;5082875;28;20179;-74
2021/12/11 08:18:10;;;;;;;36.85;13.65;;;;;;;;;;5081914;28;20182;-74
2021/12/11 08:20:37;;;;;;;29.48;13.80;;;;;;;;;;5074802;28;20178;-74
2021/12/11 08:23:04;;;;;;;31.60;13.32;;;;;;;;;;5072259;28;20609;-74
2021/12/11 08:25:33;;;;;;;26.80;11.88;;;;;;;;;;5072541;28;20179;-74
2021/12/11 08:27:59;;;;;;;28.52;11.90;;;;;;;;;;5073522;28;20186;-74
2021/12/11 08:30:27;;;;;;;30.20;13.25;;;;;;;;;;5080525;28;20194;-74
2021/12/11 08:32:53;;;;;;;32.88;14.05;;;;;;;;;;5073460;28;20198;-74
2021/12/11 08:35:19;;;;;;;40.42;14.77;;;;;;;;;;5073384;28;20262;-74
2021/12/11 08:37:47;;;;;;;30.88;12.60;;;;;;;;;;5073297;28;20179;-74
2021/12/11 08:40:14;;;;;;;55.97;16.23;;;;;;;;;;5073880;28;20182;-74
2021/12/11 08:42:41;;;;;;;34.28;13.60;;;;;;;;;;5073996;28;20531;-74
2021/12/11 08:45:10;;;;;;;41.30;15.00;;;;;;;;;;5075535;28;20194;-74
2021/12/11 08:47:39;;;;;;;44.65;14.82;;;;;;;;;;5081655;28;20171;-74
2021/12/11 08:50:05;;;;;;;34.58;13.13;;;;;;;;;;5075803;28;20175;-74
2021/12/11 08:52:33;;;;;;;27.52;13.27;;;;;;;;;;5080078;28;20547;-74
2021/12/11 08:55:00;;;;;;;31.50;13.65;;;;;;;;;;5073129;28;20606;-74
2021/12/11 08:57:32;;;;;;;76.40;17.08;;;;;;;;;;5075170;28;20190;-74
2021/12/11 09:00:07;;;;;;;54.25;16.08;;;;;;;;;;5081188;28;20217;-74
2021/12/11 09:02:39;;;;;;;41.05;15.05;;;;;;;;;;5079055;28;20205;-74
2021/12/11 09:05:08;;;;;;;25.75;11.82;;;;;;;;;;5076473;28;20568;-74
2021/12/11 09:07:34;;;;;;;40.88;15.02;;;;;;;;;;5076598;28;20205;-73
2021/12/11 09:10:24;;;;;;;45.05;15.40;;;;;;;;;;5084080;28;20204;-74
2021/12/11 09:12:53;;;;;;;25.42;11.90;;;;;;;;;;5000636;28;20198;-73
2021/12/11 09:15:24;;;;;;;37.38;14.30;;;;;;;;;;5002421;28;20197;-73
2021/12/11 09:18:01;;;;;;;34.90;14.05;;;;;;;;;;5006089;28;20234;-73
2021/12/11 09:20:37;;;;;;;33.13;13.43;;;;;;;;;;5011390;28;20186;-74
2021/12/11 09:23:10;;;;;;;42.90;13.88;;;;;;;;;;4998519;28;20295;-75
2021/12/11 09:26:09;;;;;;;27.75;7.05;;;2.80;1.00;;;;;;5000873;28;20180;-76
2021/12/11 09:28:41;;;;;;;22.67;11.52;;;;;;;;;;4938615;29;20258;-75
2021/12/11 09:31:14;;;;;;;38.55;12.55;;;;;;;;;;4949368;28;20310;-75
2021/12/11 09:33:45;;;;;;;34.65;10.85;;;;;;;;;;4951822;29;20233;-74
2021/12/11 09:36:16;;;;;;;29.17;7.50;;;;;;;;;;4953487;28;20198;-75
2021/12/11 09:38:45;;;;;;;15.30;7.15;;;;;;;;;;4952428;29;20209;-74
2021/12/11 09:41:26;;;;;;;23.42;9.23;;;;;;;;;;4951936;28;20183;-74
2021/12/11 09:43:53;;;;;;;21.60;7.88;;;;;;;;;;4950689;29;20699;-74
2021/12/11 09:46:24;;;;;;;21.65;8.52;;;;;;;;;;4951016;28;20183;-74
2021/12/11 09:48:51;;;;;;;17.10;6.78;;;;;;;;;;4956067;28;20183;-76
2021/12/11 09:51:21;;;;;;;27.85;7.78;;;;;;;;;;4987589;28;20196;-74
2021/12/11 09:53:55;;;;;;;16.60;7.80;;;;;;;;;;5011562;28;20181;-73
2021/12/11 09:56:25;;;;;;;35.42;7.13;;;;;;;;;;5006346;28;20183;-73
2021/12/11 09:58:52;;;;;;;19.50;8.05;;;;;;;;;;5008783;28;20297;-74
2021/12/11 10:01:21;;;;;;;18.05;6.72;;;;;;;;;;4990030;28;20538;-74
2021/12/11 10:03:51;;;;;;;19.55;5.72;;;;;;;;;;5011978;28;20559;-74
2021/12/11 10:06:39;;;;;;;14.98;6.38;;;;;;;;;;5077464;28;20186;-73
2021/12/11 10:09:18;;;;;;;14.15;5.90;;;;;;;;;;5080253;28;20171;-73
2021/12/11 10:11:52;;;;;;;17.73;7.00;;;4.10;1.00;;;;;;5077064;28;20209;-74
2021/12/11 10:14:19;;;;;;;10.75;3.45;;;;;;;;;;5078694;28;20660;-74
2021/12/11 10:16:48;;;;;;;16.52;7.03;;;;;;;;;;5093163;28;20302;-73
2021/12/11 10:19:15;;;;;;;19.70;7.82;;;;;;;;;;5084635;28;20504;-73
2021/12/11 10:21:43;;;;;;;16.13;6.80;;;;;;;;;;5076682;28;20182;-73
2021/12/11 10:24:11;;;;;;;22.90;8.00;;;;;;;;;;5073626;28;20856;-73
2021/12/11 10:26:38;;;;;;;20.40;7.57;;;;;;;;;;5078701;28;20427;-73
2021/12/11 10:29:09;;;;;;;30.10;8.20;;;;;;;;;;5083682;28;20258;-73
2021/12/11 10:31:41;;;;;;;20.63;7.47;;;;;;;;;;5074888;28;20433;-73
2021/12/11 10:34:09;;;;;;;17.80;8.60;;;;;;;;;;5078795;28;20174;-74
2021/12/11 10:36:38;;;;;;;17.30;7.23;;;;;;;;;;5079883;28;20186;-72
2021/12/11 10:39:06;;;;;;;19.20;8.10;;;;;;;;;;5074701;28;20409;-73
2021/12/11 10:41:33;;;;;;;16.47;6.30;;;;;;;;;;5075108;28;20762;-73
2021/12/11 10:44:09;;;;;;;22.17;7.20;;;;;;;;;;5079651;28;20462;-73
2021/12/11 10:46:38;;;;;;;18.13;7.03;;;;;;;;;;5083473;28;20413;-73
2021/12/11 10:49:06;;;;;;;23.10;7.43;;;;;;;;;;5074002;28;20414;-75
2021/12/11 10:51:36;;;;;;;19.70;6.47;;;;;;;;;;5090089;28;20504;-76
2021/12/11 10:54:02;;;;;;;26.17;7.37;;;;;;;;;;5086353;28;20417;-76
2021/12/11 10:56:29;;;;;;;18.37;6.10;;;;;;;;;;5074497;28;20413;-75
2021/12/11 10:58:58;;;;;;;15.03;6.87;;;;;;;;;;5084831;28;20409;-76
2021/12/11 11:01:28;;;;;;;16.37;7.73;;;;;;;;;;5087940;28;20433;-76
2021/12/11 11:04:05;;;;;;;38.83;8.40;;;5.30;1.00;;;;;;5085036;28;20458;-76
2021/12/11 11:06:31;;;;;;;22.27;6.50;;;;;;;;;;5075261;28;20428;-75
2021/12/11 11:08:58;;;;;;;16.03;4.97;;;;;;;;;;5074344;28;20401;-75
2021/12/11 11:11:26;;;;;;;39.03;7.83;;;;;;;;;;5079842;28;20425;-74
2021/12/11 11:13:52;;;;;;;25.47;7.90;;;;;;;;;;5074190;28;20418;-73
2021/12/11 11:16:19;;;;;;;19.93;8.87;;;;;;;;;;5078188;28;20458;-73
2021/12/11 11:18:46;;;;;;;31.60;7.40;;;;;;;;;;5080287;28;20500;-73
2021/12/11 11:21:17;;;;;;;35.80;8.17;;;;;;;;;;5078440;28;20421;-76
2021/12/11 11:23:44;;;;;;;19.97;7.10;;;;;;;;;;5087369;28;20479;-76
2021/12/11 11:26:13;;;;;;;21.27;8.75;;;;;;;;;;5091886;28;20409;-77
2021/12/11 11:28:40;;;;;;;22.53;6.13;;;;;;;;;;5073814;28;20182;-75
2021/12/11 11:31:10;;;;;;;17.27;6.80;;;;;;;;;;5087331;28;20412;-75
2021/12/11 11:33:37;;;;;;;21.13;8.27;;;;;;;;;;5081929;28;20400;-76
2021/12/11 11:36:05;;;;;;;18.17;7.37;;;;;;;;;;5077354;28;20406;-75
2021/12/11 11:38:34;;;;;;;42.43;9.90;;;6.20;1.00;;;;;;5074109;28;20416;-76
2021/12/11 11:41:04;;;;;;;15.50;7.20;;;;;;;;;;5075751;28;20397;-76
2021/12/11 11:43:30;;;;;;;16.67;7.13;;;;;;;;;;5084729;28;20445;-76
2021/12/11 11:45:59;;;;;;;24.77;8.60;;;;;;;;;;5074709;28;20408;-76
2021/12/11 11:48:28;;;;;;;16.30;5.80;;;6.60;1.00;;;;;;5077184;28;20398;-76
2021/12/11 11:50:55;;;;;;;22.90;6.73;;;;;;;;;;5077554;28;20408;-73
2021/12/11 11:53:24;;;;;;;22.90;6.70;;;;;;;;;;5085403;28;20417;-73
2021/12/11 11:55:52;;;;;;;23.93;7.90;;;;;;;;;;5081526;28;20417;-73
2021/12/11 11:58:20;;;;;;;31.93;9.40;;;;;;;;;;5078790;28;20510;-73
2021/12/11 12:00:54;;;;;;;14.13;4.97;;;;;;;;;;5076400;28;20437;-73
2021/12/11 12:03:22;;;;;;;13.80;6.30;;;;;;;;;;5073264;28;20475;-73
2021/12/11 12:05:52;;;;;;;24.70;9.00;;;;;;;;;;5073010;28;20765;-73
2021/12/11 12:08:23;;;;;;;21.57;8.57;;;;;;;;;;5079871;28;20415;-76
2021/12/11 12:10:51;;;;;;;16.20;7.57;;;6.90;1.00;;;;;;5080222;28;20445;-77
2021/12/11 12:13:24;;;;;;;16.13;6.70;;;6.90;1.00;;;;;;5086407;28;20488;-76
2021/12/11 12:15:52;;;;;;;37.10;8.50;;;;;;;;;;5073980;28;20782;-76
2021/12/11 12:18:18;;;;;;;14.30;6.47;;;;;;;;;;5073690;28;20421;-76
2021/12/11 12:20:49;;;;;;;24.77;7.47;;;;;;;;;;5073379;28;20396;-76
2021/12/11 12:23:15;;;;;;;16.07;6.50;;;;;;;;;;5078599;28;20547;-73
2021/12/11 12:25:43;;;;;;;28.30;8.13;;;;;;;;;;5073136;28;20405;-73
2021/12/11 12:28:09;;;;;;;31.77;7.67;;;;;;;;;;5073503;28;20912;-73
2021/12/11 12:30:45;;;;;;;20.37;7.37;;;;;;;;;;5073485;28;20413;-73
2021/12/11 12:33:12;;;;;;;20.20;7.43;;;;;;;;;;5074283;28;20942;-73
2021/12/11 12:35:38;;;;;;;20.63;6.13;;;;;;;;;;5077000;28;20413;-73
2021/12/11 12:38:07;;;;;;;14.20;4.90;;;;;;;;;;5088876;28;20420;-75
2021/12/11 12:40:44;;;;;;;27.87;5.33;;;;;;;;;;5079377;28;20496;-75
2021/12/11 12:43:20;;;;;;;16.30;5.87;;;;;;;;;;5080659;28;20882;-75
2021/12/11 12:45:50;;;;;;;13.07;5.27;;;;;;;;;;5088311;28;20511;-77
2021/12/11 12:48:19;;;;;;;21.73;5.90;;;;;;;;;;5076883;28;20405;-74
2021/12/11 12:50:48;;;;;;;9.10;4.60;;;;;;;;;;5075703;28;20425;-75
2021/12/11 12:53:14;;;;;;;19.70;5.63;;;;;;;;;;5076985;28;20442;-73
2021/12/11 12:55:43;;;;;;;13.43;5.07;;;;;;;;;;5076945;28;20404;-73
2021/12/11 12:58:17;;;;;;;16.20;5.60;;;;;;;;;;5080666;28;20442;-73
2021/12/11 13:00:47;;;;;;;12.90;6.17;;;;;;;;;;5079385;28;20420;-73
2021/12/11 13:03:20;;;;;;;13.30;5.57;;;6.80;1.00;;;;;;5081355;28;20502;-74
2021/12/11 13:05:48;;;;;;;14.70;5.80;;;;;;;;;;5076459;28;20467;-74
2021/12/11 13:08:18;;;;;;;22.13;6.50;;;;;;;;;;5082066;28;20916;-73
2021/12/11 13:10:49;;;;;;;15.63;6.10;;;6.80;1.00;;;;;;5096719;28;20400;-73
2021/12/11 13:13:16;;;;;;;14.30;6.17;;;;;;;;;;5087248;28;20911;-74
2021/12/11 13:15:44;;;;;;;9.43;4.73;;;;;;;;;;5076627;28;20409;-74
2021/12/11 13:18:12;;;;;;;12.00;5.50;;;;;;;;;;5088744;28;20409;-74
2021/12/11 13:20:41;;;;;;;16.87;6.90;;;;;;;;;;5089860;28;20870;-74
2021/12/11 13:23:11;;;;;;;8.00;4.10;;;;;;;;;;5086147;28;20495;-75
2021/12/11 13:25:47;;;;;;;8.63;4.07;;;;;;;;;;5080657;28;20574;-76
2021/12/11 13:28:14;;;;;;;24.87;7.20;;;;;;;;;;5076363;28;20412;-75
2021/12/11 13:30:47;;;;;;;9.97;4.73;;;;;;;;;;5079728;28;20428;-77
2021/12/11 13:33:13;;;;;;;14.00;4.90;;;;;;;;;;5086899;28;20432;-76
2021/12/11 13:35:43;;;;;;;13.00;5.67;;;;;;;;;;5095380;28;20408;-76
2021/12/11 13:38:13;;;;;;;18.43;5.67;;;;;;;;;;5089070;28;20885;-76
2021/12/11 13:40:44;;;;;;;9.50;4.60;;;;;;;;;;5093926;28;20489;-76
2021/12/11 13:43:12;;;;;;;8.93;3.33;;;;;;;;;;5087548;28;20445;-77
2021/12/11 13:45:40;;;;;;;11.57;4.67;;;;;;;;;;5088095;28;20462;-76
2021/12/11 13:48:13;;;;;;;12.33;5.30;;;;;;;;;;5086120;28;20412;-76
2021/12/11 13:50:43;;;;;;;9.23;4.00;;;;;;;;;;5082463;28;20891;-75
2021/12/11 13:53:09;;;;;;;22.83;6.33;;;;;;;;;;5093698;28;20481;-76
2021/12/11 13:55:37;;;;;;;17.50;5.50;;;;;;;;;;5083279;28;20919;-77
2021/12/11 13:58:05;;;;;;;15.13;5.60;;;;;;;;;;5080124;28;20420;-75
2021/12/11 14:00:36;;;;;;;13.83;5.40;;;;;;;;;;5077122;28;20820;-74
2021/12/11 14:03:02;;;;;;;11.83;5.40;;;;;;;;;;5079434;28;20500;-74
2021/12/11 14:05:32;;;;;;;8.77;4.13;;;;;;;;;;5074526;28;20471;-75
2021/12/11 14:07:58;;;;;;;9.53;5.30;;;;;;;;;;5076226;28;20423;-74
2021/12/11 14:10:31;;;;;;;12.87;5.43;;;;;;;;;;5076965;28;20421;-76
2021/12/11 14:13:00;;;;;;;16.67;5.23;;;;;;;;;;5077774;28;20484;-76
2021/12/11 14:15:30;;;;;;;12.03;4.47;;;;;;;;;;5088027;28;20421;-76
2021/12/11 14:17:56;;;;;;;11.83;5.13;;;;;;;;;;5075381;28;20496;-77
2021/12/11 14:20:23;;;;;;;12.50;4.67;;;;;;;;;;5077775;28;20763;-76
2021/12/11 14:22:55;;;;;;;11.50;5.20;;;;;;;;;;5082329;28;20990;-77
2021/12/11 14:25:25;;;;;;;6.77;3.83;;;;;;;;;;5076170;28;20433;-77
2021/12/11 14:27:53;;;;;;;17.87;4.90;;;;;;;;;;5087622;28;20419;-75
2021/12/11 14:30:22;;;;;;;12.10;4.00;;;;;;;;;;5083506;28;20428;-76
2021/12/11 14:32:53;;;;;;;29.40;5.90;;;;;;;;;;5088768;28;20518;-76
2021/12/11 14:35:22;;;;;;;13.80;4.63;;;;;;;;;;5074883;28;20534;-76
2021/12/11 14:37:55;;;;;;;10.57;4.37;;;5.30;1.00;;;;;;5074110;28;20482;-76
2021/12/11 14:40:25;;;;;;;12.77;4.40;;;;;;;;;;5074137;28;20892;-76
2021/12/11 14:42:53;;;;;;;16.80;5.53;;;;;;;;;;5076760;28;20452;-76
2021/12/11 14:45:23;;;;;;;13.57;4.70;;;;;;;;;;5081245;28;20427;-76
2021/12/11 14:47:49;;;;;;;37.17;7.90;;;;;;;;;;5077468;28;20421;-76
2021/12/11 14:50:18;;;;;;;17.93;5.03;;;;;;;;;;5091573;28;20408;-75
2021/12/11 14:52:45;;;;;;;18.20;5.00;;;;;;;;;;5087543;28;20404;-76